createdAt,value
2018-03-03T00:00:12.266Z,75.50
2018-03-03T00:01:19.148Z,67.60
2018-03-03T00:02:26.210Z,79.90
2018-03-03T00:03:33.254Z,77.10
2018-03-03T00:04:39.952Z,78.40
2018-03-03T00:05:46.689Z,73.40
2018-03-03T00:06:53.400Z,75.30
2018-03-03T00:08:00.153Z,77.90
2018-03-03T00:09:06.877Z,83.90
2018-03-03T00:10:13.582Z,72.40
2018-03-03T00:11:20.453Z,79.80
2018-03-03T00:12:27.347Z,78.30
2018-03-03T00:13:34.485Z,77.30
2018-03-03T00:14:41.177Z,78.70
2018-03-03T00:15:47.894Z,78.70
2018-03-03T00:16:54.789Z,78.40
2018-03-03T00:18:01.494Z,76.00
2018-03-03T00:19:08.306Z,83.80
2018-03-03T00:20:14.966Z,78.00
2018-03-03T00:21:21.700Z,79.40
2018-03-03T00:22:28.402Z,74.00
2018-03-03T00:23:35.285Z,76.90
2018-03-03T00:24:42.037Z,80.70
2018-03-03T00:25:48.889Z,80.60
2018-03-03T00:26:55.598Z,74.70
2018-03-03T00:28:02.711Z,83.80
2018-03-03T00:29:09.460Z,79.00
2018-03-03T00:30:16.189Z,84.10
2018-03-03T00:31:22.866Z,81.90
2018-03-03T00:32:29.550Z,92.10
2018-03-03T00:33:36.265Z,78.00
2018-03-03T00:34:43.244Z,89.60
2018-03-03T00:35:49.918Z,79.50
2018-03-03T00:36:56.625Z,79.40
2018-03-03T00:38:03.426Z,79.00
2018-03-03T00:39:10.121Z,78.30
2018-03-03T00:40:16.824Z,73.50
2018-03-03T00:41:23.498Z,79.60
2018-03-03T00:42:30.238Z,75.70
2018-03-03T00:43:36.961Z,77.50
2018-03-03T00:44:43.693Z,83.30
2018-03-03T00:45:50.404Z,74.90
2018-03-03T00:46:57.559Z,80.20
2018-03-03T00:48:04.250Z,84.80
2018-03-03T00:49:10.974Z,77.00
2018-03-03T00:50:17.649Z,80.70
2018-03-03T00:51:24.326Z,77.20
2018-03-03T00:52:31.097Z,79.60
2018-03-03T00:53:37.805Z,84.40
2018-03-03T00:54:44.566Z,79.40
2018-03-03T00:55:51.289Z,80.00
2018-03-03T00:56:57.986Z,73.20
2018-03-03T00:58:04.944Z,72.70
2018-03-03T00:59:11.622Z,76.00
2018-03-03T01:00:18.332Z,81.20
2018-03-03T01:01:25.256Z,77.20
2018-03-03T01:02:31.966Z,75.60
2018-03-03T01:03:38.740Z,76.70
2018-03-03T01:04:45.455Z,76.30
2018-03-03T01:05:52.222Z,81.80
2018-03-03T01:06:58.943Z,75.70
2018-03-03T01:08:05.650Z,74.10
2018-03-03T01:09:12.344Z,74.00
2018-03-03T01:10:19.117Z,72.00
2018-03-03T01:11:25.778Z,78.80
2018-03-03T01:12:32.512Z,83.70
2018-03-03T01:13:39.194Z,91.40
2018-03-03T01:14:45.902Z,87.80
2018-03-03T01:15:52.630Z,85.90
2018-03-03T01:16:59.357Z,84.90
2018-03-03T01:18:06.075Z,81.90
2018-03-03T01:19:12.754Z,82.30
2018-03-03T01:20:19.558Z,81.10
2018-03-03T01:21:26.497Z,78.50
2018-03-03T01:22:33.181Z,77.30
2018-03-03T01:23:39.970Z,83.00
2018-03-03T01:24:46.952Z,74.90
2018-03-03T01:25:53.778Z,83.70
2018-03-03T01:27:00.589Z,74.30
2018-03-03T01:28:07.478Z,79.20
2018-03-03T01:29:14.351Z,76.10
2018-03-03T01:30:21.198Z,82.40
2018-03-03T01:31:28.009Z,82.00
2018-03-03T01:32:34.913Z,79.60
2018-03-03T01:33:42.421Z,82.00
2018-03-03T01:34:48.785Z,88.30
2018-03-03T01:35:55.638Z,78.70
2018-03-03T01:37:02.342Z,73.70
2018-03-03T01:38:09.397Z,72.50
2018-03-03T01:39:16.360Z,79.00
2018-03-03T01:40:23.430Z,78.80
2018-03-03T01:41:30.144Z,80.00
2018-03-03T01:42:37.300Z,73.60
2018-03-03T01:43:44.460Z,73.70
2018-03-03T01:44:51.126Z,79.50
2018-03-03T01:45:57.857Z,77.60
2018-03-03T01:47:04.543Z,84.00
2018-03-03T01:48:11.254Z,79.10
2018-03-03T01:49:17.978Z,72.40
2018-03-03T01:50:24.640Z,83.20
2018-03-03T01:51:31.857Z,78.40
2018-03-03T01:52:38.999Z,81.80
2018-03-03T01:53:45.778Z,86.30
2018-03-03T01:54:52.594Z,83.40
2018-03-03T01:55:59.625Z,76.80
2018-03-03T01:57:06.328Z,75.90
2018-03-03T01:58:13.056Z,81.00
2018-03-03T01:59:19.757Z,80.80
2018-03-03T02:00:26.582Z,79.50
2018-03-03T02:01:33.316Z,83.30
2018-03-03T02:02:40.011Z,75.50
2018-03-03T02:03:46.721Z,80.00
2018-03-03T02:04:53.476Z,86.00
2018-03-03T02:06:00.240Z,77.70
2018-03-03T02:07:06.935Z,83.30
2018-03-03T02:08:13.669Z,85.40
2018-03-03T02:09:20.348Z,79.80
2018-03-03T02:10:27.121Z,79.10
2018-03-03T02:11:33.856Z,80.40
2018-03-03T02:12:40.536Z,78.10
2018-03-03T02:13:47.215Z,83.00
2018-03-03T02:14:53.893Z,83.60
2018-03-03T02:16:00.682Z,84.70
2018-03-03T02:17:07.446Z,77.70
2018-03-03T02:18:14.269Z,84.50
2018-03-03T02:19:20.960Z,83.70
2018-03-03T02:20:27.743Z,78.50
2018-03-03T02:21:34.565Z,78.50
2018-03-03T02:22:41.254Z,79.10
2018-03-03T02:23:47.937Z,84.00
2018-03-03T02:24:54.665Z,82.50
2018-03-03T02:26:01.424Z,79.00
2018-03-03T02:27:08.156Z,79.30
2018-03-03T02:28:14.887Z,81.80
2018-03-03T02:29:21.569Z,76.20
2018-03-03T02:30:28.279Z,79.10
2018-03-03T02:31:34.993Z,78.70
2018-03-03T02:32:41.773Z,81.20
2018-03-03T02:33:48.436Z,79.20
2018-03-03T02:34:55.171Z,92.70
2018-03-03T02:36:01.939Z,79.80
2018-03-03T02:37:08.657Z,76.70
2018-03-03T02:38:15.485Z,80.10
2018-03-03T02:39:22.210Z,82.10
2018-03-03T02:40:28.945Z,83.00
2018-03-03T02:41:35.741Z,83.60
2018-03-03T02:42:42.586Z,80.90
2018-03-03T02:43:49.304Z,80.70
2018-03-03T02:44:56.070Z,84.00
2018-03-03T02:46:02.928Z,81.90
2018-03-03T02:47:09.695Z,87.00
2018-03-03T02:48:16.558Z,83.40
2018-03-03T02:49:23.437Z,81.70
2018-03-03T02:50:30.142Z,83.80
2018-03-03T02:51:36.913Z,78.30
2018-03-03T02:52:43.715Z,83.60
2018-03-03T02:53:50.532Z,79.40
2018-03-03T02:54:57.288Z,80.10
2018-03-03T02:56:04.001Z,82.30
2018-03-03T02:57:10.733Z,80.50
2018-03-03T02:58:17.489Z,81.40
2018-03-03T02:59:24.271Z,86.00
2018-03-03T03:00:31.089Z,84.50
2018-03-03T03:01:37.810Z,80.00
2018-03-03T03:02:44.569Z,82.60
2018-03-03T03:03:51.352Z,86.30
2018-03-03T03:04:58.088Z,83.80
2018-03-03T03:06:04.831Z,82.20
2018-03-03T03:07:11.541Z,82.30
2018-03-03T03:08:18.266Z,84.60
2018-03-03T03:09:25.108Z,80.00
2018-03-03T03:10:31.929Z,86.80
2018-03-03T03:11:38.689Z,77.10
2018-03-03T03:12:45.455Z,85.20
2018-03-03T03:13:52.202Z,80.20
2018-03-03T03:14:58.910Z,83.00
2018-03-03T03:16:05.629Z,78.60
2018-03-03T03:17:12.410Z,79.20
2018-03-03T03:18:19.150Z,79.10
2018-03-03T03:19:25.877Z,76.90
2018-03-03T03:20:32.798Z,80.90
2018-03-03T03:21:39.559Z,82.70
2018-03-03T03:22:46.361Z,80.90
2018-03-03T03:23:53.104Z,78.00
2018-03-03T03:24:59.982Z,77.60
2018-03-03T03:26:06.753Z,86.60
2018-03-03T03:27:13.566Z,81.20
2018-03-03T03:28:20.381Z,84.10
2018-03-03T03:29:27.167Z,87.10
2018-03-03T03:30:33.883Z,81.00
2018-03-03T03:31:40.634Z,84.80
2018-03-03T03:32:47.398Z,83.10
2018-03-03T03:33:54.160Z,84.80
2018-03-03T03:35:00.888Z,84.30
2018-03-03T03:36:07.686Z,79.50
2018-03-03T03:37:14.470Z,86.20
2018-03-03T03:38:21.346Z,75.90
2018-03-03T03:39:28.113Z,85.00
2018-03-03T03:40:34.827Z,80.10
2018-03-03T03:41:41.580Z,85.90
2018-03-03T03:42:48.398Z,88.00
2018-03-03T03:43:55.141Z,85.90
2018-03-03T03:45:01.916Z,80.20
2018-03-03T03:46:08.683Z,87.10
2018-03-03T03:47:15.441Z,84.80
2018-03-03T03:48:22.333Z,87.40
2018-03-03T03:49:29.046Z,88.50
2018-03-03T03:50:35.782Z,90.40
2018-03-03T03:51:42.534Z,87.50
2018-03-03T03:52:49.270Z,87.20
2018-03-03T03:53:56.030Z,82.90
2018-03-03T03:55:02.763Z,77.80
2018-03-03T03:56:09.537Z,85.20
2018-03-03T03:57:16.361Z,77.00
2018-03-03T03:58:23.334Z,87.90
2018-03-03T03:59:30.037Z,78.00
2018-03-03T04:00:36.763Z,78.70
2018-03-03T04:01:43.722Z,75.50
2018-03-03T04:02:50.450Z,75.00
2018-03-03T04:03:57.229Z,76.10
2018-03-03T04:05:03.965Z,79.00
2018-03-03T04:06:10.677Z,81.00
2018-03-03T04:07:17.490Z,79.60
2018-03-03T04:08:24.236Z,81.30
2018-03-03T04:09:31.002Z,75.00
2018-03-03T04:10:37.738Z,82.40
2018-03-03T04:11:44.586Z,80.40
2018-03-03T04:12:51.337Z,81.40
2018-03-03T04:13:58.082Z,79.20
2018-03-03T04:15:04.845Z,75.10
2018-03-03T04:16:11.656Z,80.80
2018-03-03T04:17:18.376Z,79.10
2018-03-03T04:18:25.170Z,82.10
2018-03-03T04:19:31.909Z,84.40
2018-03-03T04:20:38.606Z,85.60
2018-03-03T04:21:45.385Z,89.30
2018-03-03T04:22:52.163Z,87.80
2018-03-03T04:23:58.913Z,79.20
2018-03-03T04:25:06.033Z,82.50
2018-03-03T04:26:12.487Z,84.40
2018-03-03T04:27:19.272Z,86.10
2018-03-03T04:28:26.060Z,87.10
2018-03-03T04:29:32.895Z,83.40
2018-03-03T04:30:39.725Z,88.10
2018-03-03T04:31:46.722Z,80.10
2018-03-03T04:32:53.512Z,86.20
2018-03-03T04:34:00.289Z,83.00
2018-03-03T04:35:07.110Z,82.70
2018-03-03T04:36:13.819Z,84.10
2018-03-03T04:37:20.611Z,87.20
2018-03-03T04:38:27.369Z,86.50
2018-03-03T04:39:34.176Z,84.00
2018-03-03T04:40:40.912Z,85.10
2018-03-03T04:41:47.658Z,80.20
2018-03-03T04:42:54.404Z,83.50
2018-03-03T04:44:01.139Z,89.80
2018-03-03T04:45:07.945Z,80.80
2018-03-03T04:46:14.726Z,84.30
2018-03-03T04:47:21.470Z,85.50
2018-03-03T04:48:28.293Z,79.20
2018-03-03T04:49:35.056Z,83.40
2018-03-03T04:50:41.919Z,83.60
2018-03-03T04:51:48.800Z,88.30
2018-03-03T04:52:55.849Z,89.90
2018-03-03T04:54:02.637Z,89.20
2018-03-03T04:55:09.506Z,83.40
2018-03-03T04:56:16.366Z,85.70
2018-03-03T04:57:23.154Z,92.20
2018-03-03T04:58:29.965Z,91.30
2018-03-03T04:59:36.829Z,90.20
2018-03-03T05:00:43.637Z,97.20
2018-03-03T05:01:50.425Z,92.10
2018-03-03T05:02:57.641Z,98.70
2018-03-03T05:04:04.426Z,85.80
2018-03-03T05:05:11.275Z,97.60
2018-03-03T05:06:18.123Z,86.30
2018-03-03T05:07:24.785Z,90.70
2018-03-03T05:08:31.606Z,92.00
2018-03-03T05:09:38.421Z,91.10
2018-03-03T05:10:45.335Z,90.70
2018-03-03T05:11:52.123Z,95.10
2018-03-03T05:12:58.929Z,92.10
2018-03-03T05:14:05.937Z,87.70
2018-03-03T05:15:12.720Z,93.20
2018-03-03T05:16:19.547Z,88.90
2018-03-03T05:17:26.329Z,91.40
2018-03-03T05:18:33.160Z,94.60
2018-03-03T05:19:40.004Z,91.20
2018-03-03T05:20:47.113Z,96.50
2018-03-03T05:21:54.014Z,93.20
2018-03-03T05:23:01.137Z,95.20
2018-03-03T05:24:08.175Z,99.90
2018-03-03T05:25:15.265Z,97.30
2018-03-03T05:26:22.234Z,96.00
2018-03-03T05:27:29.052Z,101.90
2018-03-03T05:28:36.164Z,100.20
2018-03-03T05:29:43.368Z,102.10
2018-03-03T05:30:50.321Z,95.90
2018-03-03T05:31:57.264Z,102.20
2018-03-03T05:33:04.201Z,93.80
2018-03-03T05:34:11.364Z,98.60
2018-03-03T05:35:18.190Z,94.40
2018-03-03T05:36:25.302Z,101.00
2018-03-03T05:37:32.364Z,110.60
2018-03-03T05:38:39.252Z,94.70
2018-03-03T05:39:46.012Z,95.80
2018-03-03T05:40:52.837Z,97.00
2018-03-03T05:41:59.672Z,101.80
2018-03-03T05:43:06.443Z,94.40
2018-03-03T05:44:13.258Z,97.20
2018-03-03T05:45:20.210Z,92.30
2018-03-03T05:46:26.936Z,103.30
2018-03-03T05:47:33.808Z,101.50
2018-03-03T05:48:40.539Z,95.20
2018-03-03T05:49:47.335Z,92.40
2018-03-03T05:50:54.080Z,106.70
2018-03-03T05:52:00.865Z,102.10
2018-03-03T05:53:07.633Z,105.80
2018-03-03T05:54:14.450Z,100.00
2018-03-03T05:55:21.292Z,106.70
2018-03-03T05:56:28.145Z,97.70
2018-03-03T05:57:34.941Z,109.20
2018-03-03T05:58:41.813Z,102.10
2018-03-03T05:59:48.590Z,92.30
2018-03-03T06:00:55.331Z,89.50
2018-03-03T06:02:02.125Z,105.80
2018-03-03T06:03:08.923Z,100.10
2018-03-03T06:04:15.688Z,101.60
2018-03-03T06:05:22.450Z,90.30
2018-03-03T06:06:29.302Z,103.10
2018-03-03T06:07:36.202Z,97.60
2018-03-03T06:08:43.068Z,98.50
2018-03-03T06:09:49.853Z,101.10
2018-03-03T06:10:56.657Z,100.40
2018-03-03T06:12:03.381Z,99.80
2018-03-03T06:13:10.173Z,110.50
2018-03-03T06:14:16.912Z,114.70
2018-03-03T06:15:23.613Z,101.60
2018-03-03T06:16:30.374Z,104.40
2018-03-03T06:17:37.342Z,105.10
2018-03-03T06:18:44.148Z,111.40
2018-03-03T06:19:51.115Z,111.00
2018-03-03T06:20:58.140Z,94.30
2018-03-03T06:22:04.827Z,104.40
2018-03-03T06:23:11.636Z,112.60
2018-03-03T06:24:18.289Z,103.30
2018-03-03T06:25:25.056Z,106.40
2018-03-03T06:26:31.993Z,98.50
2018-03-03T06:27:38.851Z,100.50
2018-03-03T06:28:45.601Z,117.90
2018-03-03T06:29:52.298Z,111.80
2018-03-03T06:30:58.984Z,118.50
2018-03-03T06:32:05.694Z,112.00
2018-03-03T06:33:12.489Z,108.40
2018-03-03T06:34:19.281Z,107.30
2018-03-03T06:35:26.112Z,111.40
2018-03-03T06:36:32.824Z,112.30
2018-03-03T06:37:39.525Z,120.70
2018-03-03T06:38:46.706Z,106.10
2018-03-03T06:39:53.477Z,115.60
2018-03-03T06:41:00.163Z,110.70
2018-03-03T06:42:06.878Z,115.70
2018-03-03T06:43:13.696Z,121.50
2018-03-03T06:44:20.380Z,122.20
2018-03-03T06:45:27.178Z,121.10
2018-03-03T06:46:33.851Z,117.50
2018-03-03T06:47:40.532Z,118.90
2018-03-03T06:48:47.761Z,129.50
2018-03-03T06:49:54.441Z,121.60
2018-03-03T06:51:01.136Z,123.30
2018-03-03T06:52:07.837Z,125.30
2018-03-03T06:53:14.488Z,123.10
2018-03-03T06:54:21.657Z,120.90
2018-03-03T06:55:28.332Z,121.70
2018-03-03T06:56:35.052Z,129.60
2018-03-03T06:57:41.745Z,121.40
2018-03-03T06:58:48.457Z,128.00
2018-03-03T06:59:55.190Z,126.20
2018-03-03T07:01:01.932Z,127.90
2018-03-03T07:02:08.581Z,116.00
2018-03-03T07:03:15.256Z,123.10
2018-03-03T07:04:22.463Z,111.00
2018-03-03T07:05:29.446Z,124.70
2018-03-03T07:06:36.695Z,142.60
2018-03-03T07:07:42.969Z,120.00
2018-03-03T07:08:49.998Z,120.80
2018-03-03T07:09:56.722Z,121.60
2018-03-03T07:11:03.558Z,113.30
2018-03-03T07:12:10.265Z,106.50
2018-03-03T07:13:17.008Z,118.50
2018-03-03T07:14:23.893Z,124.90
2018-03-03T07:15:30.877Z,120.30
2018-03-03T07:16:37.734Z,107.70
2018-03-03T07:17:44.480Z,113.30
2018-03-03T07:18:51.260Z,116.60
2018-03-03T07:19:57.959Z,121.90
2018-03-03T07:21:04.633Z,115.80
2018-03-03T07:22:11.384Z,117.20
2018-03-03T07:23:18.057Z,111.40
2018-03-03T07:24:25.348Z,110.10
2018-03-03T07:25:32.402Z,107.30
2018-03-03T07:26:39.206Z,107.90
2018-03-03T07:27:45.948Z,94.20
2018-03-03T07:28:52.715Z,99.30
2018-03-03T07:29:59.393Z,100.20
2018-03-03T07:31:06.064Z,95.60
2018-03-03T07:32:13.581Z,98.20
2018-03-03T07:33:20.268Z,96.70
2018-03-03T07:34:27.034Z,94.00
2018-03-03T07:35:33.850Z,85.90
2018-03-03T07:36:40.572Z,88.10
2018-03-03T07:37:47.409Z,82.50
2018-03-03T07:38:54.193Z,83.60
2018-03-03T07:40:01.020Z,82.90
2018-03-03T07:41:07.877Z,84.40
2018-03-03T07:42:14.713Z,89.80
2018-03-03T07:43:21.568Z,92.40
2018-03-03T07:44:28.330Z,84.30
2018-03-03T07:45:35.152Z,79.00
2018-03-03T07:46:41.869Z,85.10
2018-03-03T07:47:48.742Z,84.60
2018-03-03T07:48:55.855Z,84.30
2018-03-03T07:50:02.253Z,86.60
2018-03-03T07:51:09.061Z,87.00
2018-03-03T07:52:15.944Z,87.20
2018-03-03T07:53:22.677Z,87.50
2018-03-03T07:54:29.452Z,91.00
2018-03-03T07:55:36.198Z,83.50
2018-03-03T07:56:42.963Z,87.40
2018-03-03T07:57:49.980Z,83.90
2018-03-03T07:58:56.749Z,85.90
2018-03-03T08:00:03.628Z,92.80
2018-03-03T08:01:10.477Z,91.50
2018-03-03T08:02:17.217Z,84.40
2018-03-03T08:03:24.104Z,94.80
2018-03-03T08:04:31.049Z,98.30
2018-03-03T08:05:37.929Z,95.70
2018-03-03T08:06:44.876Z,91.80
2018-03-03T08:07:51.594Z,91.30
2018-03-03T08:08:58.390Z,101.70
2018-03-03T08:10:05.289Z,104.20
2018-03-03T08:11:12.097Z,97.50
2018-03-03T08:12:18.889Z,107.20
2018-03-03T08:13:25.712Z,98.50
2018-03-03T08:14:32.450Z,94.20
2018-03-03T08:15:39.247Z,95.20
2018-03-03T08:16:45.944Z,103.30
2018-03-03T08:17:52.671Z,102.00
2018-03-03T08:18:59.461Z,95.20
2018-03-03T08:20:06.156Z,101.90
2018-03-03T08:21:12.914Z,115.10
2018-03-03T08:22:19.617Z,113.30
2018-03-03T08:23:26.341Z,109.20
2018-03-03T08:24:33.068Z,104.00
2018-03-03T08:25:39.910Z,107.10
2018-03-03T08:26:46.669Z,111.40
2018-03-03T08:27:53.494Z,95.40
2018-03-03T08:29:00.280Z,102.50
2018-03-03T08:30:06.984Z,104.20
2018-03-03T08:31:13.744Z,113.40
2018-03-03T08:32:20.500Z,102.30
2018-03-03T08:33:27.426Z,97.70
2018-03-03T08:34:34.340Z,101.40
2018-03-03T08:35:41.190Z,102.70
2018-03-03T08:36:47.947Z,102.60
2018-03-03T08:37:54.684Z,104.20
2018-03-03T08:39:01.502Z,95.10
2018-03-03T08:40:08.464Z,93.10
2018-03-03T08:41:15.197Z,94.30
2018-03-03T08:42:21.901Z,96.60
2018-03-03T08:43:28.580Z,95.20
2018-03-03T08:44:35.313Z,88.80
2018-03-03T08:45:41.988Z,92.00
2018-03-03T08:46:49.169Z,90.00
2018-03-03T08:47:55.928Z,90.80
2018-03-03T08:49:02.606Z,95.60
2018-03-03T08:50:09.456Z,92.10
2018-03-03T08:51:16.272Z,88.20
2018-03-03T08:52:23.100Z,92.60
2018-03-03T08:53:30.280Z,95.70
2018-03-03T08:54:36.969Z,87.90
2018-03-03T08:55:43.764Z,86.80
2018-03-03T08:56:50.741Z,92.30
2018-03-03T08:57:57.444Z,88.30
2018-03-03T08:59:04.215Z,88.10
2018-03-03T09:00:10.973Z,89.00
2018-03-03T09:01:17.774Z,86.70
2018-03-03T09:02:24.516Z,88.20
2018-03-03T09:03:31.342Z,92.10
2018-03-03T09:04:38.065Z,83.40
2018-03-03T09:05:44.801Z,81.70
2018-03-03T09:06:51.605Z,87.10
2018-03-03T09:07:58.456Z,88.90
2018-03-03T09:09:05.245Z,81.30
2018-03-03T09:10:11.960Z,95.90
2018-03-03T09:11:18.648Z,84.70
2018-03-03T09:12:25.402Z,85.30
2018-03-03T09:13:32.383Z,79.40
2018-03-03T09:14:39.157Z,83.60
2018-03-03T09:15:45.922Z,85.10
2018-03-03T09:16:52.621Z,81.10
2018-03-03T09:17:59.376Z,82.70
2018-03-03T09:19:06.198Z,86.30
2018-03-03T09:20:12.902Z,80.70
2018-03-03T09:21:19.760Z,79.70
2018-03-03T09:22:26.548Z,82.80
2018-03-03T09:23:33.577Z,80.10
2018-03-03T09:24:40.309Z,83.90
2018-03-03T09:25:47.047Z,71.00
2018-03-03T09:26:53.763Z,80.20
2018-03-03T09:28:00.583Z,82.00
2018-03-03T09:29:07.305Z,82.10
2018-03-03T09:30:14.321Z,81.40
2018-03-03T09:31:21.134Z,73.70
2018-03-03T09:32:27.881Z,78.70
2018-03-03T09:33:34.867Z,86.00
2018-03-03T09:34:41.616Z,74.70
2018-03-03T09:35:48.305Z,80.20
2018-03-03T09:36:55.058Z,66.50
2018-03-03T09:38:01.914Z,78.50
2018-03-03T09:39:08.668Z,80.40
2018-03-03T09:40:15.405Z,69.30
2018-03-03T09:41:22.174Z,76.50
2018-03-03T09:42:28.981Z,84.00
2018-03-03T09:43:35.737Z,75.40
2018-03-03T09:44:42.559Z,78.30
2018-03-03T09:45:49.389Z,81.50
2018-03-03T09:46:56.096Z,78.00
2018-03-03T09:48:02.851Z,74.70
2018-03-03T09:49:09.616Z,81.40
2018-03-03T09:50:16.508Z,91.10
2018-03-03T09:51:23.318Z,86.40
2018-03-03T09:52:30.036Z,83.30
2018-03-03T09:53:36.773Z,79.50
2018-03-03T09:54:43.620Z,81.70
2018-03-03T09:55:50.378Z,80.10
2018-03-03T09:56:57.548Z,85.60
2018-03-03T09:58:04.312Z,85.90
2018-03-03T09:59:11.222Z,87.60
2018-03-03T10:00:18.052Z,90.80
2018-03-03T10:01:25.017Z,88.40
2018-03-03T10:02:31.801Z,85.80
2018-03-03T10:03:38.644Z,84.10
2018-03-03T10:04:45.516Z,87.70
2018-03-03T10:05:52.236Z,84.20
2018-03-03T10:06:58.989Z,86.80
2018-03-03T10:08:05.930Z,89.40
2018-03-03T10:09:12.725Z,95.80
2018-03-03T10:10:19.629Z,85.60
2018-03-03T10:11:26.351Z,84.50
2018-03-03T10:12:33.132Z,92.30
2018-03-03T10:13:39.832Z,87.70
2018-03-03T10:14:46.813Z,91.30
2018-03-03T10:15:53.632Z,88.80
2018-03-03T10:17:00.732Z,91.50
2018-03-03T10:18:07.545Z,87.30
2018-03-03T10:19:14.256Z,89.70
2018-03-03T10:20:20.977Z,92.90
2018-03-03T10:21:27.740Z,87.70
2018-03-03T10:22:34.445Z,94.60
2018-03-03T10:23:41.245Z,90.00
2018-03-03T10:24:48.045Z,92.70
2018-03-03T10:25:55.009Z,86.80
2018-03-03T10:27:01.818Z,88.20
2018-03-03T10:28:08.628Z,88.30
2018-03-03T10:29:15.449Z,90.30
2018-03-03T10:30:22.200Z,77.20
2018-03-03T10:31:28.928Z,86.90
2018-03-03T10:32:35.713Z,84.70
2018-03-03T10:33:42.472Z,81.60
2018-03-03T10:34:49.230Z,82.90
2018-03-03T10:35:56.046Z,80.30
2018-03-03T10:37:02.896Z,79.70
2018-03-03T10:38:09.653Z,81.20
2018-03-03T10:39:16.488Z,84.70
2018-03-03T10:40:23.280Z,81.50
2018-03-03T10:41:29.993Z,80.80
2018-03-03T10:42:36.708Z,79.40
2018-03-03T10:43:43.598Z,79.00
2018-03-03T10:44:50.227Z,77.80
2018-03-03T10:45:56.969Z,79.10
2018-03-03T10:47:03.701Z,77.70
2018-03-03T10:48:10.525Z,80.20
2018-03-03T10:49:17.245Z,78.00
2018-03-03T10:50:24.140Z,73.80
2018-03-03T10:51:30.854Z,84.80
2018-03-03T10:52:37.804Z,69.40
2018-03-03T10:53:44.620Z,72.30
2018-03-03T10:54:51.385Z,71.10
2018-03-03T10:55:58.088Z,76.70
2018-03-03T10:57:05.010Z,75.40
2018-03-03T10:58:11.796Z,79.60
2018-03-03T10:59:18.623Z,73.00
2018-03-03T11:00:25.492Z,75.60
2018-03-03T11:01:32.474Z,74.80
2018-03-03T11:02:39.232Z,71.30
2018-03-03T11:03:45.940Z,75.30
2018-03-03T11:04:52.644Z,78.30
2018-03-03T11:05:59.519Z,76.90
2018-03-03T11:07:06.237Z,78.50
2018-03-03T11:08:12.928Z,74.60
2018-03-03T11:09:19.654Z,69.50
2018-03-03T11:10:26.485Z,69.60
2018-03-03T11:11:33.187Z,65.60
2018-03-03T11:12:39.885Z,75.20
2018-03-03T11:13:46.664Z,69.00
2018-03-03T11:14:53.372Z,67.60
2018-03-03T11:16:00.076Z,74.20
2018-03-03T11:17:06.920Z,66.10
2018-03-03T11:18:13.709Z,66.30
2018-03-03T11:19:20.491Z,78.60
2018-03-03T11:20:27.468Z,71.90
2018-03-03T11:21:34.196Z,73.70
2018-03-03T11:22:40.880Z,73.90
2018-03-03T11:23:47.671Z,71.00
2018-03-03T11:24:54.436Z,72.70
2018-03-03T11:26:01.390Z,71.00
2018-03-03T11:27:08.232Z,74.90
2018-03-03T11:28:15.079Z,59.80
2018-03-03T11:29:21.961Z,76.80
2018-03-03T11:30:28.669Z,65.20
2018-03-03T11:31:35.385Z,71.60
2018-03-03T11:32:42.081Z,72.00
2018-03-03T11:33:48.832Z,64.50
2018-03-03T11:34:55.518Z,67.30
2018-03-03T11:36:02.337Z,60.10
2018-03-03T11:37:09.038Z,65.90
2018-03-03T11:38:15.742Z,62.00
2018-03-03T11:39:22.503Z,64.00
2018-03-03T11:40:33.135Z,70.70
2018-03-03T11:41:35.913Z,63.40
2018-03-03T11:42:42.686Z,71.00
2018-03-03T11:43:49.852Z,68.80
2018-03-03T11:44:56.550Z,68.30
2018-03-03T11:46:03.354Z,66.30
2018-03-03T11:47:10.086Z,65.30
2018-03-03T11:48:16.866Z,65.70
2018-03-03T11:49:23.572Z,62.40
2018-03-03T11:50:30.324Z,63.40
2018-03-03T11:51:37.054Z,67.00
2018-03-03T11:52:43.763Z,58.50
2018-03-03T11:53:50.521Z,73.00
2018-03-03T11:54:57.214Z,58.70
2018-03-03T11:56:03.958Z,63.00
2018-03-03T11:57:10.689Z,70.30
2018-03-03T11:58:17.394Z,65.50
2018-03-03T11:59:24.100Z,61.90
2018-03-03T12:00:30.816Z,65.00
2018-03-03T12:01:37.640Z,61.60
2018-03-03T12:02:44.340Z,62.70
2018-03-03T12:03:51.102Z,65.60
2018-03-03T12:04:57.840Z,66.70
2018-03-03T12:06:04.616Z,57.80
2018-03-03T12:07:11.304Z,69.00
2018-03-03T12:08:18.001Z,65.50
2018-03-03T12:09:24.802Z,69.20
2018-03-03T12:10:31.505Z,67.90
2018-03-03T12:11:38.276Z,71.20
2018-03-03T12:12:44.956Z,62.50
2018-03-03T12:13:51.688Z,65.50
2018-03-03T12:14:58.686Z,63.40
2018-03-03T12:16:05.382Z,68.10
2018-03-03T12:17:12.342Z,64.60
2018-03-03T12:18:19.077Z,66.70
2018-03-03T12:19:25.736Z,66.20
2018-03-03T12:20:32.741Z,65.60
2018-03-03T12:21:39.601Z,62.70
2018-03-03T12:22:46.388Z,57.50
2018-03-03T12:23:53.096Z,60.80
2018-03-03T12:24:59.959Z,58.50
2018-03-03T12:26:06.877Z,65.90
2018-03-03T12:27:13.709Z,62.50
2018-03-03T12:28:20.478Z,65.40
2018-03-03T12:29:27.251Z,59.70
2018-03-03T12:30:33.942Z,60.50
2018-03-03T12:31:40.654Z,66.80
2018-03-03T12:32:47.852Z,61.60
2018-03-03T12:33:54.885Z,60.60
2018-03-03T12:35:01.563Z,59.70
2018-03-03T12:36:08.269Z,60.20
2018-03-03T12:37:15.096Z,64.40
2018-03-03T12:38:22.042Z,70.00
2018-03-03T12:39:29.363Z,65.60
2018-03-03T12:40:36.271Z,64.50
2018-03-03T12:41:43.120Z,61.60
2018-03-03T12:42:49.859Z,60.90
2018-03-03T12:43:56.630Z,62.80
2018-03-03T12:45:03.367Z,62.40
2018-03-03T12:46:10.515Z,63.90
2018-03-03T12:47:17.601Z,62.20
2018-03-03T12:48:24.416Z,60.40
2018-03-03T12:49:31.433Z,63.00
2018-03-03T12:50:38.307Z,64.40
2018-03-03T12:51:45.239Z,60.80
2018-03-03T12:52:52.678Z,61.60
2018-03-03T12:53:59.237Z,59.90
2018-03-03T12:55:05.816Z,62.20
2018-03-03T12:56:12.689Z,64.40
2018-03-03T12:57:19.452Z,59.50
2018-03-03T12:58:26.767Z,61.50
2018-03-03T12:59:33.145Z,56.40
2018-03-03T13:00:40.076Z,57.00
2018-03-03T13:01:48.007Z,58.70
2018-03-03T13:02:54.489Z,53.00
2018-03-03T13:04:01.568Z,62.30
2018-03-03T13:05:08.690Z,57.10
2018-03-03T13:06:15.941Z,54.80
2018-03-03T13:07:23.723Z,55.90
2018-03-03T13:08:31.365Z,57.40
2018-03-03T13:09:36.396Z,57.00
2018-03-03T13:10:43.436Z,55.60
2018-03-03T13:11:50.197Z,62.10
2018-03-03T13:12:56.920Z,53.60
2018-03-03T13:14:03.965Z,57.00
2018-03-03T13:15:10.775Z,51.90
2018-03-03T13:16:17.568Z,57.40
2018-03-03T13:17:24.354Z,58.30
2018-03-03T13:18:31.090Z,61.20
2018-03-03T13:19:37.821Z,58.90
2018-03-03T13:20:44.533Z,56.90
2018-03-03T13:21:51.315Z,58.80
2018-03-03T13:22:58.064Z,55.50
2018-03-03T13:24:04.792Z,57.20
2018-03-03T13:25:11.514Z,59.00
2018-03-03T13:26:18.437Z,59.20
2018-03-03T13:27:26.348Z,59.90
2018-03-03T13:28:32.476Z,56.10
2018-03-03T13:29:39.252Z,54.00
2018-03-03T13:30:45.954Z,55.30
2018-03-03T13:31:52.677Z,53.60
2018-03-03T13:32:59.436Z,51.10
2018-03-03T13:34:06.153Z,49.90
2018-03-03T13:35:12.919Z,54.80
2018-03-03T13:36:19.645Z,56.40
2018-03-03T13:37:26.355Z,57.90
2018-03-03T13:38:33.176Z,57.50
2018-03-03T13:39:39.863Z,63.30
2018-03-03T13:40:46.642Z,56.90
2018-03-03T13:41:53.338Z,61.30
2018-03-03T13:43:00.086Z,55.20
2018-03-03T13:44:06.832Z,53.70
2018-03-03T13:45:13.680Z,54.50
2018-03-03T13:46:20.368Z,59.10
2018-03-03T13:47:27.216Z,59.10
2018-03-03T13:48:34.215Z,59.00
2018-03-03T13:49:40.892Z,55.70
2018-03-03T13:50:47.613Z,57.30
2018-03-03T13:51:54.430Z,56.30
2018-03-03T13:53:01.177Z,56.80
2018-03-03T13:54:07.879Z,57.60
2018-03-03T13:55:14.567Z,56.80
2018-03-03T13:56:21.304Z,56.70
2018-03-03T13:57:27.993Z,60.00
2018-03-03T13:58:34.652Z,63.30
2018-03-03T13:59:41.832Z,56.00
2018-03-03T14:00:48.636Z,61.50
2018-03-03T14:01:55.333Z,57.20
2018-03-03T14:03:02.028Z,57.70
2018-03-03T14:04:08.720Z,55.60
2018-03-03T14:05:15.428Z,53.30
2018-03-03T14:06:22.088Z,58.90
2018-03-03T14:07:28.793Z,54.50
2018-03-03T14:08:35.473Z,56.70
2018-03-03T14:09:42.300Z,56.90
2018-03-03T14:10:48.977Z,54.50
2018-03-03T14:11:55.652Z,57.30
2018-03-03T14:13:02.362Z,58.90
2018-03-03T14:14:09.058Z,57.30
2018-03-03T14:15:15.779Z,64.40
2018-03-03T14:16:22.444Z,61.60